Dalry, United Kingdom
Current Conditions -  °F | °C
As of 5:50 PM on Monday 24 Nov 2014 (Local Time) from EGPK Reporting Station
Scattered Clouds Scattered Clouds  
Wind Chill: 41°   Ceiling: Unl
Heat Index: 45°   Visibility: 6mi
Dew Point: 41°   Wind: 6mph
Humidity: 87%   Direction: 150°SSE
Pressure: 30.24"   Gusts: NA
Location:  55.68°N, 4.72°W
Report Text: EGPK 241750Z 15005KT 9999 SCT030 07/05 Q1024
Loading
Personal Weather Stations






























Interactive Weather Map New forecast layout! Learn more

10-Day Weather Forecast

Advertisements
Track Severe Weather on mobile